sensor_id;sensor_type;location;lat;lon;timestamp;temperature;humidity
38020;DHT22;23829;51.350;17.286;2023-12-20T00:01:50;22.60;40.90
38020;DHT22;23829;51.350;17.286;2023-12-20T00:04:17;22.70;40.70
38020;DHT22;23829;51.350;17.286;2023-12-20T00:06:43;22.70;40.70
38020;DHT22;23829;51.350;17.286;2023-12-20T00:09:10;22.90;40.40
38020;DHT22;23829;51.350;17.286;2023-12-20T00:11:36;23.10;40.10
38020;DHT22;23829;51.350;17.286;2023-12-20T00:14:02;22.90;40.00
38020;DHT22;23829;51.350;17.286;2023-12-20T00:16:28;22.70;40.80
38020;DHT22;23829;51.350;17.286;2023-12-20T00:18:55;22.80;40.30
38020;DHT22;23829;51.350;17.286;2023-12-20T00:21:21;22.80;40.00
38020;DHT22;23829;51.350;17.286;2023-12-20T00:23:47;23.10;40.20
38020;DHT22;23829;51.350;17.286;2023-12-20T00:26:13;22.90;40.00
38020;DHT22;23829;51.350;17.286;2023-12-20T00:28:39;22.70;40.60
38020;DHT22;23829;51.350;17.286;2023-12-20T00:31:05;22.90;40.70
38020;DHT22;23829;51.350;17.286;2023-12-20T00:33:32;23.00;40.30
38020;DHT22;23829;51.350;17.286;2023-12-20T00:35:58;22.50;40.70
38020;DHT22;23829;51.350;17.286;2023-12-20T00:38:24;22.80;40.60
38020;DHT22;23829;51.350;17.286;2023-12-20T00:40:50;22.80;40.40
38020;DHT22;23829;51.350;17.286;2023-12-20T00:43:16;22.90;40.80
38020;DHT22;23829;51.350;17.286;2023-12-20T00:45:42;22.90;40.60
38020;DHT22;23829;51.350;17.286;2023-12-20T00:48:08;23.20;40.10
38020;DHT22;23829;51.350;17.286;2023-12-20T00:50:34;23.40;39.50
38020;DHT22;23829;51.350;17.286;2023-12-20T00:53:01;23.20;39.80
38020;DHT22;23829;51.350;17.286;2023-12-20T00:55:27;23.10;40.00
38020;DHT22;23829;51.350;17.286;2023-12-20T00:57:53;22.80;40.40
38020;DHT22;23829;51.350;17.286;2023-12-20T01:00:19;23.00;40.40
38020;DHT22;23829;51.350;17.286;2023-12-20T01:02:46;23.20;40.40
38020;DHT22;23829;51.350;17.286;2023-12-20T01:05:15;23.10;40.30
38020;DHT22;23829;51.350;17.286;2023-12-20T01:07:41;22.90;40.40
38020;DHT22;23829;51.350;17.286;2023-12-20T01:10:07;22.90;40.30
38020;DHT22;23829;51.350;17.286;2023-12-20T01:12:33;23.00;40.20
38020;DHT22;23829;51.350;17.286;2023-12-20T01:14:59;23.10;40.30
38020;DHT22;23829;51.350;17.286;2023-12-20T01:17:26;23.20;39.90
38020;DHT22;23829;51.350;17.286;2023-12-20T01:19:52;23.10;40.30
38020;DHT22;23829;51.350;17.286;2023-12-20T01:22:18;23.10;39.90
38020;DHT22;23829;51.350;17.286;2023-12-20T01:24:44;22.80;40.50
38020;DHT22;23829;51.350;17.286;2023-12-20T01:27:11;22.80;40.60
38020;DHT22;23829;51.350;17.286;2023-12-20T01:29:37;22.70;40.80
38020;DHT22;23829;51.350;17.286;2023-12-20T01:32:03;22.80;40.70
38020;DHT22;23829;51.350;17.286;2023-12-20T01:34:29;23.10;40.10
38020;DHT22;23829;51.350;17.286;2023-12-20T01:36:55;23.40;39.60
38020;DHT22;23829;51.350;17.286;2023-12-20T01:39:21;23.60;39.20
38020;DHT22;23829;51.350;17.286;2023-12-20T01:41:48;23.80;38.70
38020;DHT22;23829;51.350;17.286;2023-12-20T01:44:14;23.60;38.90
38020;DHT22;23829;51.350;17.286;2023-12-20T01:46:40;23.60;38.90
38020;DHT22;23829;51.350;17.286;2023-12-20T01:49:06;23.50;39.00
38020;DHT22;23829;51.350;17.286;2023-12-20T01:51:34;23.40;39.00
38020;DHT22;23829;51.350;17.286;2023-12-20T01:54:00;23.20;39.10
38020;DHT22;23829;51.350;17.286;2023-12-20T01:56:26;23.20;39.20
38020;DHT22;23829;51.350;17.286;2023-12-20T01:58:54;23.40;38.80
38020;DHT22;23829;51.350;17.286;2023-12-20T02:01:22;22.90;39.00
38020;DHT22;23829;51.350;17.286;2023-12-20T02:03:48;22.90;39.40
38020;DHT22;23829;51.350;17.286;2023-12-20T02:06:14;22.90;39.40
38020;DHT22;23829;51.350;17.286;2023-12-20T02:08:40;22.70;39.80
38020;DHT22;23829;51.350;17.286;2023-12-20T02:11:07;22.90;39.40
38020;DHT22;23829;51.350;17.286;2023-12-20T02:13:33;22.80;39.40
38020;DHT22;23829;51.350;17.286;2023-12-20T02:16:00;23.00;39.00
38020;DHT22;23829;51.350;17.286;2023-12-20T02:18:26;22.90;39.00
38020;DHT22;23829;51.350;17.286;2023-12-20T02:20:52;22.70;39.30
38020;DHT22;23829;51.350;17.286;2023-12-20T02:23:19;22.40;40.00
38020;DHT22;23829;51.350;17.286;2023-12-20T02:25:45;22.70;39.90
38020;DHT22;23829;51.350;17.286;2023-12-20T02:28:11;22.90;39.00
38020;DHT22;23829;51.350;17.286;2023-12-20T02:30:38;23.00;39.00
38020;DHT22;23829;51.350;17.286;2023-12-20T02:33:04;22.40;39.30
38020;DHT22;23829;51.350;17.286;2023-12-20T02:35:32;22.30;39.70
38020;DHT22;23829;51.350;17.286;2023-12-20T02:37:58;22.20;40.10
38020;DHT22;23829;51.350;17.286;2023-12-20T02:40:24;22.10;40.50
38020;DHT22;23829;51.350;17.286;2023-12-20T02:42:50;22.20;40.00
38020;DHT22;23829;51.350;17.286;2023-12-20T02:45:16;22.50;39.80
38020;DHT22;23829;51.350;17.286;2023-12-20T02:47:42;22.50;39.50
38020;DHT22;23829;51.350;17.286;2023-12-20T02:50:09;22.30;39.60
38020;DHT22;23829;51.350;17.286;2023-12-20T02:52:35;22.60;39.50
38020;DHT22;23829;51.350;17.286;2023-12-20T02:55:01;22.40;39.40
38020;DHT22;23829;51.350;17.286;2023-12-20T02:57:27;22.30;39.60
38020;DHT22;23829;51.350;17.286;2023-12-20T02:59:54;22.30;40.10
38020;DHT22;23829;51.350;17.286;2023-12-20T03:02:20;22.20;39.40
38020;DHT22;23829;51.350;17.286;2023-12-20T03:04:46;22.30;39.60
38020;DHT22;23829;51.350;17.286;2023-12-20T03:07:12;22.40;40.00
38020;DHT22;23829;51.350;17.286;2023-12-20T03:09:38;22.70;38.80
38020;DHT22;23829;51.350;17.286;2023-12-20T03:12:04;22.50;39.10
38020;DHT22;23829;51.350;17.286;2023-12-20T03:14:31;22.60;38.90
38020;DHT22;23829;51.350;17.286;2023-12-20T03:16:57;22.90;38.30
38020;DHT22;23829;51.350;17.286;2023-12-20T03:19:23;22.40;39.20
38020;DHT22;23829;51.350;17.286;2023-12-20T03:21:49;22.00;40.10
38020;DHT22;23829;51.350;17.286;2023-12-20T03:24:15;22.20;39.50
38020;DHT22;23829;51.350;17.286;2023-12-20T03:26:41;22.40;39.50
38020;DHT22;23829;51.350;17.286;2023-12-20T03:29:07;22.40;39.20
38020;DHT22;23829;51.350;17.286;2023-12-20T03:31:33;22.40;39.20
38020;DHT22;23829;51.350;17.286;2023-12-20T03:34:00;22.20;39.40
38020;DHT22;23829;51.350;17.286;2023-12-20T03:36:26;22.60;38.90
38020;DHT22;23829;51.350;17.286;2023-12-20T03:38:52;22.70;38.60
38020;DHT22;23829;51.350;17.286;2023-12-20T03:41:18;22.40;39.10
38020;DHT22;23829;51.350;17.286;2023-12-20T03:43:45;22.40;39.00
38020;DHT22;23829;51.350;17.286;2023-12-20T03:46:11;22.30;39.30
38020;DHT22;23829;51.350;17.286;2023-12-20T03:48:37;22.00;39.80
38020;DHT22;23829;51.350;17.286;2023-12-20T03:51:03;22.20;39.60
38020;DHT22;23829;51.350;17.286;2023-12-20T03:53:30;22.30;39.40
38020;DHT22;23829;51.350;17.286;2023-12-20T03:55:56;22.60;39.00
38020;DHT22;23829;51.350;17.286;2023-12-20T03:58:22;22.70;38.60
38020;DHT22;23829;51.350;17.286;2023-12-20T04:00:48;22.50;38.60
38020;DHT22;23829;51.350;17.286;2023-12-20T04:03:14;22.40;39.10
38020;DHT22;23829;51.350;17.286;2023-12-20T04:05:41;22.10;39.30
38020;DHT22;23829;51.350;17.286;2023-12-20T04:08:07;22.30;39.20
38020;DHT22;23829;51.350;17.286;2023-12-20T04:10:33;22.20;38.90
38020;DHT22;23829;51.350;17.286;2023-12-20T04:13:00;22.00;39.60
38020;DHT22;23829;51.350;17.286;2023-12-20T04:15:26;22.00;39.70
38020;DHT22;23829;51.350;17.286;2023-12-20T04:17:52;22.20;39.30
38020;DHT22;23829;51.350;17.286;2023-12-20T04:20:18;22.20;39.10
38020;DHT22;23829;51.350;17.286;2023-12-20T04:22:44;21.80;39.70
38020;DHT22;23829;51.350;17.286;2023-12-20T04:25:10;22.00;39.40
38020;DHT22;23829;51.350;17.286;2023-12-20T04:27:37;21.80;39.50
38020;DHT22;23829;51.350;17.286;2023-12-20T04:30:03;22.00;39.70
38020;DHT22;23829;51.350;17.286;2023-12-20T04:32:29;21.80;39.70
38020;DHT22;23829;51.350;17.286;2023-12-20T04:34:55;21.70;40.00
38020;DHT22;23829;51.350;17.286;2023-12-20T04:37:22;21.80;39.50
38020;DHT22;23829;51.350;17.286;2023-12-20T04:39:48;21.70;40.00
38020;DHT22;23829;51.350;17.286;2023-12-20T04:42:14;21.80;39.70
38020;DHT22;23829;51.350;17.286;2023-12-20T04:44:40;21.90;39.60
38020;DHT22;23829;51.350;17.286;2023-12-20T04:47:06;22.30;38.90
38020;DHT22;23829;51.350;17.286;2023-12-20T04:49:32;22.20;39.40
38020;DHT22;23829;51.350;17.286;2023-12-20T04:51:59;22.00;39.20
38020;DHT22;23829;51.350;17.286;2023-12-20T04:54:25;22.20;39.00
38020;DHT22;23829;51.350;17.286;2023-12-20T04:56:51;22.30;39.10
38020;DHT22;23829;51.350;17.286;2023-12-20T04:59:17;22.30;38.90
38020;DHT22;23829;51.350;17.286;2023-12-20T05:01:43;22.20;39.20
38020;DHT22;23829;51.350;17.286;2023-12-20T05:04:09;21.90;39.60
38020;DHT22;23829;51.350;17.286;2023-12-20T05:06:35;22.10;39.30
38020;DHT22;23829;51.350;17.286;2023-12-20T05:09:01;21.90;39.10
38020;DHT22;23829;51.350;17.286;2023-12-20T05:11:28;22.40;38.80
38020;DHT22;23829;51.350;17.286;2023-12-20T05:13:54;22.30;38.80
38020;DHT22;23829;51.350;17.286;2023-12-20T05:16:20;22.20;38.50
38020;DHT22;23829;51.350;17.286;2023-12-20T05:18:47;22.10;39.30
38020;DHT22;23829;51.350;17.286;2023-12-20T05:21:13;22.40;38.50
38020;DHT22;23829;51.350;17.286;2023-12-20T05:23:39;22.40;38.40
38020;DHT22;23829;51.350;17.286;2023-12-20T05:26:06;22.00;38.90
38020;DHT22;23829;51.350;17.286;2023-12-20T05:28:32;22.10;38.90
38020;DHT22;23829;51.350;17.286;2023-12-20T05:30:58;21.80;39.50
38020;DHT22;23829;51.350;17.286;2023-12-20T05:33:24;21.80;39.70
38020;DHT22;23829;51.350;17.286;2023-12-20T05:35:51;22.10;39.20
38020;DHT22;23829;51.350;17.286;2023-12-20T05:38:17;22.20;38.70
38020;DHT22;23829;51.350;17.286;2023-12-20T05:40:43;22.40;38.40
38020;DHT22;23829;51.350;17.286;2023-12-20T05:43:09;22.40;38.50
38020;DHT22;23829;51.350;17.286;2023-12-20T05:45:35;22.40;38.40
38020;DHT22;23829;51.350;17.286;2023-12-20T05:48:02;22.50;38.10
38020;DHT22;23829;51.350;17.286;2023-12-20T05:50:29;22.70;37.90
38020;DHT22;23829;51.350;17.286;2023-12-20T05:52:55;22.50;38.00
38020;DHT22;23829;51.350;17.286;2023-12-20T05:55:21;21.90;39.40
38020;DHT22;23829;51.350;17.286;2023-12-20T05:57:47;22.00;39.10
38020;DHT22;23829;51.350;17.286;2023-12-20T06:00:14;22.00;39.40
38020;DHT22;23829;51.350;17.286;2023-12-20T06:02:41;22.40;39.00
38020;DHT22;23829;51.350;17.286;2023-12-20T06:05:07;22.00;39.00
38020;DHT22;23829;51.350;17.286;2023-12-20T06:07:33;22.00;39.00
38020;DHT22;23829;51.350;17.286;2023-12-20T06:10:00;22.10;39.20
38020;DHT22;23829;51.350;17.286;2023-12-20T06:12:26;22.30;38.60
38020;DHT22;23829;51.350;17.286;2023-12-20T06:14:58;22.30;38.50
38020;DHT22;23829;51.350;17.286;2023-12-20T06:17:24;22.10;38.90
38020;DHT22;23829;51.350;17.286;2023-12-20T06:19:50;22.30;38.60
38020;DHT22;23829;51.350;17.286;2023-12-20T06:22:16;22.40;38.80
38020;DHT22;23829;51.350;17.286;2023-12-20T06:24:42;22.20;39.00
38020;DHT22;23829;51.350;17.286;2023-12-20T06:27:08;21.70;39.70
38020;DHT22;23829;51.350;17.286;2023-12-20T06:29:35;21.80;39.60
38020;DHT22;23829;51.350;17.286;2023-12-20T06:32:01;21.80;39.70
38020;DHT22;23829;51.350;17.286;2023-12-20T06:34:27;21.80;39.40
38020;DHT22;23829;51.350;17.286;2023-12-20T06:36:53;22.20;39.00
38020;DHT22;23829;51.350;17.286;2023-12-20T06:39:19;22.00;39.20
38020;DHT22;23829;51.350;17.286;2023-12-20T06:41:45;21.60;40.20
38020;DHT22;23829;51.350;17.286;2023-12-20T06:44:11;21.70;39.70
38020;DHT22;23829;51.350;17.286;2023-12-20T06:46:38;22.10;39.30
38020;DHT22;23829;51.350;17.286;2023-12-20T06:49:04;22.20;38.80
38020;DHT22;23829;51.350;17.286;2023-12-20T06:51:30;22.10;38.80
38020;DHT22;23829;51.350;17.286;2023-12-20T06:53:57;22.10;38.90
38020;DHT22;23829;51.350;17.286;2023-12-20T06:56:23;21.90;39.30
38020;DHT22;23829;51.350;17.286;2023-12-20T06:58:49;21.90;39.40
38020;DHT22;23829;51.350;17.286;2023-12-20T07:01:15;22.00;39.00
38020;DHT22;23829;51.350;17.286;2023-12-20T07:03:42;21.70;39.30
38020;DHT22;23829;51.350;17.286;2023-12-20T07:06:08;21.50;39.70
38020;DHT22;23829;51.350;17.286;2023-12-20T07:08:35;21.80;39.70
38020;DHT22;23829;51.350;17.286;2023-12-20T07:11:00;21.90;39.70
38020;DHT22;23829;51.350;17.286;2023-12-20T07:13:27;22.10;38.90
38020;DHT22;23829;51.350;17.286;2023-12-20T07:15:53;21.80;39.30
38020;DHT22;23829;51.350;17.286;2023-12-20T07:18:19;21.90;39.50
38020;DHT22;23829;51.350;17.286;2023-12-20T07:20:45;22.20;38.80
38020;DHT22;23829;51.350;17.286;2023-12-20T07:23:12;22.40;38.80
38020;DHT22;23829;51.350;17.286;2023-12-20T07:25:38;22.40;38.50
38020;DHT22;23829;51.350;17.286;2023-12-20T07:28:04;22.00;38.60
38020;DHT22;23829;51.350;17.286;2023-12-20T07:30:30;21.80;39.50
38020;DHT22;23829;51.350;17.286;2023-12-20T07:32:56;21.60;39.50
38020;DHT22;23829;51.350;17.286;2023-12-20T07:35:23;21.70;39.70
38020;DHT22;23829;51.350;17.286;2023-12-20T07:37:49;21.90;39.40
38020;DHT22;23829;51.350;17.286;2023-12-20T07:40:15;21.50;39.80
38020;DHT22;23829;51.350;17.286;2023-12-20T07:42:43;21.60;39.70
38020;DHT22;23829;51.350;17.286;2023-12-20T07:45:09;21.70;39.80
38020;DHT22;23829;51.350;17.286;2023-12-20T07:47:36;21.70;39.60
38020;DHT22;23829;51.350;17.286;2023-12-20T07:50:03;22.00;39.30
38020;DHT22;23829;51.350;17.286;2023-12-20T07:52:29;21.90;39.20
38020;DHT22;23829;51.350;17.286;2023-12-20T07:54:55;21.50;40.00
38020;DHT22;23829;51.350;17.286;2023-12-20T07:57:22;21.70;40.00
38020;DHT22;23829;51.350;17.286;2023-12-20T07:59:48;21.70;39.90
38020;DHT22;23829;51.350;17.286;2023-12-20T08:02:14;21.40;40.30
38020;DHT22;23829;51.350;17.286;2023-12-20T08:04:40;21.50;40.00
38020;DHT22;23829;51.350;17.286;2023-12-20T08:07:07;21.40;40.30
38020;DHT22;23829;51.350;17.286;2023-12-20T08:09:33;21.20;40.60
38020;DHT22;23829;51.350;17.286;2023-12-20T08:12:00;21.20;40.60
38020;DHT22;23829;51.350;17.286;2023-12-20T08:14:26;21.40;40.30
38020;DHT22;23829;51.350;17.286;2023-12-20T08:16:52;21.30;40.90
38020;DHT22;23829;51.350;17.286;2023-12-20T08:19:18;21.30;40.60
38020;DHT22;23829;51.350;17.286;2023-12-20T08:21:45;21.30;40.70
38020;DHT22;23829;51.350;17.286;2023-12-20T08:24:11;21.40;40.50
38020;DHT22;23829;51.350;17.286;2023-12-20T08:26:37;21.20;40.80
38020;DHT22;23829;51.350;17.286;2023-12-20T08:29:03;21.70;40.40
38020;DHT22;23829;51.350;17.286;2023-12-20T08:31:29;21.60;39.90
38020;DHT22;23829;51.350;17.286;2023-12-20T08:33:55;21.60;39.80
38020;DHT22;23829;51.350;17.286;2023-12-20T08:36:21;22.10;39.40
38020;DHT22;23829;51.350;17.286;2023-12-20T08:38:49;21.70;39.50
38020;DHT22;23829;51.350;17.286;2023-12-20T08:41:16;21.60;39.70
38020;DHT22;23829;51.350;17.286;2023-12-20T08:43:42;21.20;40.20
38020;DHT22;23829;51.350;17.286;2023-12-20T08:46:09;21.30;40.80
38020;DHT22;23829;51.350;17.286;2023-12-20T08:48:38;21.40;40.30
38020;DHT22;23829;51.350;17.286;2023-12-20T08:51:04;21.40;40.60
38020;DHT22;23829;51.350;17.286;2023-12-20T08:53:32;21.50;40.20
38020;DHT22;23829;51.350;17.286;2023-12-20T08:55:59;21.40;40.30
38020;DHT22;23829;51.350;17.286;2023-12-20T08:58:27;21.70;40.10
38020;DHT22;23829;51.350;17.286;2023-12-20T09:00:54;21.90;39.50
38020;DHT22;23829;51.350;17.286;2023-12-20T09:03:20;21.80;39.90
38020;DHT22;23829;51.350;17.286;2023-12-20T09:05:46;22.00;39.50
38020;DHT22;23829;51.350;17.286;2023-12-20T09:08:12;21.30;40.20
38020;DHT22;23829;51.350;17.286;2023-12-20T09:10:38;21.40;40.70
38020;DHT22;23829;51.350;17.286;2023-12-20T09:13:04;21.30;40.50
38020;DHT22;23829;51.350;17.286;2023-12-20T09:15:31;21.40;40.90
38020;DHT22;23829;51.350;17.286;2023-12-20T09:17:59;21.50;40.60
38020;DHT22;23829;51.350;17.286;2023-12-20T09:20:26;21.40;40.30
38020;DHT22;23829;51.350;17.286;2023-12-20T09:22:53;21.50;40.80
38020;DHT22;23829;51.350;17.286;2023-12-20T09:25:19;21.80;40.20
38020;DHT22;23829;51.350;17.286;2023-12-20T09:27:46;21.60;40.30
38020;DHT22;23829;51.350;17.286;2023-12-20T09:30:12;21.90;39.70
38020;DHT22;23829;51.350;17.286;2023-12-20T09:32:38;21.60;40.10
38020;DHT22;23829;51.350;17.286;2023-12-20T09:35:05;21.80;40.00
38020;DHT22;23829;51.350;17.286;2023-12-20T09:37:32;21.70;40.10
38020;DHT22;23829;51.350;17.286;2023-12-20T09:39:58;21.60;40.30
38020;DHT22;23829;51.350;17.286;2023-12-20T09:42:28;21.70;39.90
38020;DHT22;23829;51.350;17.286;2023-12-20T09:44:55;22.00;39.50
38020;DHT22;23829;51.350;17.286;2023-12-20T09:47:25;22.20;39.50
38020;DHT22;23829;51.350;17.286;2023-12-20T09:49:51;22.10;39.30
38020;DHT22;23829;51.350;17.286;2023-12-20T09:52:18;21.70;40.10
38020;DHT22;23829;51.350;17.286;2023-12-20T09:54:44;22.00;39.80
38020;DHT22;23829;51.350;17.286;2023-12-20T09:57:11;21.80;40.00
38020;DHT22;23829;51.350;17.286;2023-12-20T09:59:37;21.70;40.30
38020;DHT22;23829;51.350;17.286;2023-12-20T10:02:03;21.70;40.30
38020;DHT22;23829;51.350;17.286;2023-12-20T10:04:34;21.70;40.40
38020;DHT22;23829;51.350;17.286;2023-12-20T10:07:03;21.90;39.90
38020;DHT22;23829;51.350;17.286;2023-12-20T10:09:30;21.80;40.00
38020;DHT22;23829;51.350;17.286;2023-12-20T10:11:57;21.70;40.20
38020;DHT22;23829;51.350;17.286;2023-12-20T10:14:23;21.60;40.30
38020;DHT22;23829;51.350;17.286;2023-12-20T10:16:49;21.90;39.80
38020;DHT22;23829;51.350;17.286;2023-12-20T10:19:19;21.70;40.00
38020;DHT22;23829;51.350;17.286;2023-12-20T10:21:45;21.90;39.30
38020;DHT22;23829;51.350;17.286;2023-12-20T10:24:16;21.70;39.80
38020;DHT22;23829;51.350;17.286;2023-12-20T10:26:43;21.50;40.20
38020;DHT22;23829;51.350;17.286;2023-12-20T10:29:09;21.70;39.90
38020;DHT22;23829;51.350;17.286;2023-12-20T10:31:36;21.80;39.00
38020;DHT22;23829;51.350;17.286;2023-12-20T10:34:04;21.40;39.70
38020;DHT22;23829;51.350;17.286;2023-12-20T10:36:31;21.30;39.80
38020;DHT22;23829;51.350;17.286;2023-12-20T10:38:57;21.10;40.80
38020;DHT22;23829;51.350;17.286;2023-12-20T10:41:25;21.30;39.80
38020;DHT22;23829;51.350;17.286;2023-12-20T10:43:52;21.20;40.20
38020;DHT22;23829;51.350;17.286;2023-12-20T10:46:19;21.10;40.30
38020;DHT22;23829;51.350;17.286;2023-12-20T10:48:45;21.20;40.20
38020;DHT22;23829;51.350;17.286;2023-12-20T10:51:13;21.10;40.10
38020;DHT22;23829;51.350;17.286;2023-12-20T10:53:40;21.30;39.80
38020;DHT22;23829;51.350;17.286;2023-12-20T10:56:06;21.10;40.10
38020;DHT22;23829;51.350;17.286;2023-12-20T10:58:33;21.40;39.70
38020;DHT22;23829;51.350;17.286;2023-12-20T11:01:01;21.70;39.10
38020;DHT22;23829;51.350;17.286;2023-12-20T11:03:31;21.50;38.80
38020;DHT22;23829;51.350;17.286;2023-12-20T11:06:00;21.60;39.10
38020;DHT22;23829;51.350;17.286;2023-12-20T11:11:21;22.00;37.90
38020;DHT22;23829;51.350;17.286;2023-12-20T11:13:59;21.60;37.50
38020;DHT22;23829;51.350;17.286;2023-12-20T11:16:26;21.40;38.60
38020;DHT22;23829;51.350;17.286;2023-12-20T11:18:52;21.50;38.50
38020;DHT22;23829;51.350;17.286;2023-12-20T11:21:18;21.60;38.50
38020;DHT22;23829;51.350;17.286;2023-12-20T11:23:44;21.70;37.90
38020;DHT22;23829;51.350;17.286;2023-12-20T11:26:11;21.70;37.70
38020;DHT22;23829;51.350;17.286;2023-12-20T11:28:41;22.00;37.20
38020;DHT22;23829;51.350;17.286;2023-12-20T11:31:07;21.60;38.10
38020;DHT22;23829;51.350;17.286;2023-12-20T11:33:36;21.80;38.40
38020;DHT22;23829;51.350;17.286;2023-12-20T11:36:03;21.50;37.70
38020;DHT22;23829;51.350;17.286;2023-12-20T11:38:37;21.40;38.50
38020;DHT22;23829;51.350;17.286;2023-12-20T11:41:05;21.70;38.40
38020;DHT22;23829;51.350;17.286;2023-12-20T11:43:38;21.30;38.30
38020;DHT22;23829;51.350;17.286;2023-12-20T11:46:06;21.60;38.50
38020;DHT22;23829;51.350;17.286;2023-12-20T11:48:33;21.50;38.40
38020;DHT22;23829;51.350;17.286;2023-12-20T11:51:00;21.70;37.70
38020;DHT22;23829;51.350;17.286;2023-12-20T11:53:26;21.70;37.80
38020;DHT22;23829;51.350;17.286;2023-12-20T11:55:53;21.60;38.10
38020;DHT22;23829;51.350;17.286;2023-12-20T11:58:20;21.40;38.30
38020;DHT22;23829;51.350;17.286;2023-12-20T12:00:48;21.30;38.60
38020;DHT22;23829;51.350;17.286;2023-12-20T12:03:14;21.40;38.50
38020;DHT22;23829;51.350;17.286;2023-12-20T12:05:41;21.20;38.60
38020;DHT22;23829;51.350;17.286;2023-12-20T12:08:07;21.40;38.40
38020;DHT22;23829;51.350;17.286;2023-12-20T12:10:33;21.50;38.40
38020;DHT22;23829;51.350;17.286;2023-12-20T12:13:00;21.30;38.20
38020;DHT22;23829;51.350;17.286;2023-12-20T12:15:26;21.30;38.40
38020;DHT22;23829;51.350;17.286;2023-12-20T12:17:53;21.70;38.70
38020;DHT22;23829;51.350;17.286;2023-12-20T12:20:20;21.70;37.90
38020;DHT22;23829;51.350;17.286;2023-12-20T12:22:56;21.80;37.60
38020;DHT22;23829;51.350;17.286;2023-12-20T12:25:23;21.70;37.90
38020;DHT22;23829;51.350;17.286;2023-12-20T12:27:49;21.90;37.70
38020;DHT22;23829;51.350;17.286;2023-12-20T12:30:17;22.00;37.40
38020;DHT22;23829;51.350;17.286;2023-12-20T12:32:44;21.80;37.60
38020;DHT22;23829;51.350;17.286;2023-12-20T12:35:10;22.00;37.20
38020;DHT22;23829;51.350;17.286;2023-12-20T12:37:37;21.90;37.40
38020;DHT22;23829;51.350;17.286;2023-12-20T12:40:05;22.10;37.30
38020;DHT22;23829;51.350;17.286;2023-12-20T12:42:31;22.30;36.90
38020;DHT22;23829;51.350;17.286;2023-12-20T12:44:58;22.20;36.60
38020;DHT22;23829;51.350;17.286;2023-12-20T12:47:24;21.90;37.00
38020;DHT22;23829;51.350;17.286;2023-12-20T12:49:51;21.80;38.30
38020;DHT22;23829;51.350;17.286;2023-12-20T12:52:17;21.80;37.90
38020;DHT22;23829;51.350;17.286;2023-12-20T12:54:43;21.80;38.30
38020;DHT22;23829;51.350;17.286;2023-12-20T12:57:11;21.70;38.40
38020;DHT22;23829;51.350;17.286;2023-12-20T12:59:37;21.70;38.60
38020;DHT22;23829;51.350;17.286;2023-12-20T13:02:03;21.90;38.20
38020;DHT22;23829;51.350;17.286;2023-12-20T13:04:30;22.10;38.10
38020;DHT22;23829;51.350;17.286;2023-12-20T13:06:56;22.20;37.90
38020;DHT22;23829;51.350;17.286;2023-12-20T13:09:23;22.10;37.90
38020;DHT22;23829;51.350;17.286;2023-12-20T13:11:49;22.10;37.40
38020;DHT22;23829;51.350;17.286;2023-12-20T13:14:15;22.10;37.40
38020;DHT22;23829;51.350;17.286;2023-12-20T13:16:42;22.20;37.30
38020;DHT22;23829;51.350;17.286;2023-12-20T13:19:09;21.80;37.70
38020;DHT22;23829;51.350;17.286;2023-12-20T13:21:35;21.80;37.50
38020;DHT22;23829;51.350;17.286;2023-12-20T13:24:02;22.30;37.10
38020;DHT22;23829;51.350;17.286;2023-12-20T13:26:29;22.30;36.90
38020;DHT22;23829;51.350;17.286;2023-12-20T13:28:55;22.00;37.20
38020;DHT22;23829;51.350;17.286;2023-12-20T13:31:21;21.90;37.10
38020;DHT22;23829;51.350;17.286;2023-12-20T13:33:47;21.80;37.20
38020;DHT22;23829;51.350;17.286;2023-12-20T13:36:13;21.30;38.10
38020;DHT22;23829;51.350;17.286;2023-12-20T13:38:40;21.50;37.90
38020;DHT22;23829;51.350;17.286;2023-12-20T13:41:06;21.80;37.30
38020;DHT22;23829;51.350;17.286;2023-12-20T13:43:32;22.20;36.50
38020;DHT22;23829;51.350;17.286;2023-12-20T13:46:00;22.00;37.00
38020;DHT22;23829;51.350;17.286;2023-12-20T13:48:26;21.70;37.10
38020;DHT22;23829;51.350;17.286;2023-12-20T13:50:53;21.70;37.50
38020;DHT22;23829;51.350;17.286;2023-12-20T13:53:20;21.70;37.10
38020;DHT22;23829;51.350;17.286;2023-12-20T13:55:46;21.50;37.30
38020;DHT22;23829;51.350;17.286;2023-12-20T13:58:13;21.70;37.30
38020;DHT22;23829;51.350;17.286;2023-12-20T14:00:39;21.90;36.70
38020;DHT22;23829;51.350;17.286;2023-12-20T14:03:06;21.90;36.40
38020;DHT22;23829;51.350;17.286;2023-12-20T14:05:32;22.20;36.10
38020;DHT22;23829;51.350;17.286;2023-12-20T14:07:59;21.80;36.80
38020;DHT22;23829;51.350;17.286;2023-12-20T14:10:26;21.80;36.60
38020;DHT22;23829;51.350;17.286;2023-12-20T14:12:53;22.00;36.40
38020;DHT22;23829;51.350;17.286;2023-12-20T14:15:19;22.30;35.90
38020;DHT22;23829;51.350;17.286;2023-12-20T14:17:46;22.20;35.70
38020;DHT22;23829;51.350;17.286;2023-12-20T14:20:12;21.60;36.50
38020;DHT22;23829;51.350;17.286;2023-12-20T14:22:39;21.50;37.10
38020;DHT22;23829;51.350;17.286;2023-12-20T14:25:13;21.70;36.50
38020;DHT22;23829;51.350;17.286;2023-12-20T14:27:40;21.40;37.00
38020;DHT22;23829;51.350;17.286;2023-12-20T14:30:06;21.40;37.80
38020;DHT22;23829;51.350;17.286;2023-12-20T14:32:34;21.50;37.10
38020;DHT22;23829;51.350;17.286;2023-12-20T14:35:00;21.70;36.30
38020;DHT22;23829;51.350;17.286;2023-12-20T14:37:26;21.90;35.80
38020;DHT22;23829;51.350;17.286;2023-12-20T14:39:53;21.80;35.80
38020;DHT22;23829;51.350;17.286;2023-12-20T14:42:20;21.80;35.70
38020;DHT22;23829;51.350;17.286;2023-12-20T14:44:46;21.60;36.50
38020;DHT22;23829;51.350;17.286;2023-12-20T14:47:13;21.40;36.80
38020;DHT22;23829;51.350;17.286;2023-12-20T14:49:41;21.50;36.40
38020;DHT22;23829;51.350;17.286;2023-12-20T14:52:08;21.40;36.80
38020;DHT22;23829;51.350;17.286;2023-12-20T14:54:37;21.60;36.30
38020;DHT22;23829;51.350;17.286;2023-12-20T14:57:03;21.60;36.00
38020;DHT22;23829;51.350;17.286;2023-12-20T14:59:29;21.40;36.30
38020;DHT22;23829;51.350;17.286;2023-12-20T15:01:56;21.10;36.90
38020;DHT22;23829;51.350;17.286;2023-12-20T15:04:22;20.90;37.10
38020;DHT22;23829;51.350;17.286;2023-12-20T15:06:54;21.20;36.40
38020;DHT22;23829;51.350;17.286;2023-12-20T15:09:21;21.00;37.40
38020;DHT22;23829;51.350;17.286;2023-12-20T15:11:47;21.10;37.00
38020;DHT22;23829;51.350;17.286;2023-12-20T15:14:13;21.20;36.90